Portada
METAR-TAF:

METAR-TAF

Aeropuertos :

Mar del Plata, Argentina

Aeropuerto Internacional Astor Piazolla

latitud: 37-56S, longitud: 057-35W, altitud: 18 m

Observación

El informe se hizo hace 55 minutos, a las 10:00 UTC
Viento 8 kt del noroeste
Temperatura 11°C
Humedad 87%
Presión 1016 hPa
Visibilidad 10 km o más
sin nubes por debajo de 1500 m y sin presencia de cumulonimbus.

METAR: SAZM 301000Z 32008KT CAVOK 11/09 Q1016

Hora: 07:55 (10:55 UTC)

Pronóstico

El informe se hizo hace 5 horas y 55 minutos, a las 05:00 UTC
Pronóstico válido del 30 a las 06 UTC al 01 a las 06 UTC
Viento 10 kt del oeste-noroeste
Visibilidad 10 km o más
sin nubes por debajo de 1500 m y sin presencia de cumulonimbus.

TAF: SAZM 300500Z 3006/0106 30010KT CAVOK TX25/3018Z TN10/3010Z

Observaciones y pronósticos meteorológicos de más de 4000 aeropuertos (mensajes METAR y TAF).

Los puntos amarillos y rojos representan las estaciones disponibles.

Ponga el ratón en el punto deseado para ver el nombre de la estación.

Haga clic para ver las observaciones y los pronósticos meteorológicos.

Para cambiar el mapa : haga clic en los botones verdes con una cruz de color negro para hacer un zoom, en el botón verde con un guión para alejar o en las flechas verdes para mapas adyacentes.


METAR-TAF: